createdAt,value
2018-12-08T00:00:48.678Z,8.80
2018-12-08T00:01:54.240Z,8.80
2018-12-08T00:02:59.048Z,8.80
2018-12-08T00:04:03.911Z,8.80
2018-12-08T00:05:08.869Z,8.80
2018-12-08T00:06:13.758Z,8.90
2018-12-08T00:07:19.005Z,8.80
2018-12-08T00:08:24.909Z,8.80
2018-12-08T00:09:32.256Z,8.90
2018-12-08T00:10:38.185Z,8.90
2018-12-08T00:11:45.746Z,8.90
2018-12-08T00:12:58.792Z,8.90
2018-12-08T00:14:08.376Z,8.80
2018-12-08T00:15:13.317Z,8.90
2018-12-08T00:16:18.140Z,8.90
2018-12-08T00:17:23.062Z,8.90
2018-12-08T00:18:28.440Z,8.90
2018-12-08T00:19:34.346Z,8.90
2018-12-08T00:20:40.666Z,8.90
2018-12-08T00:21:45.529Z,8.90
2018-12-08T00:22:50.320Z,8.90
2018-12-08T00:23:55.374Z,8.90
2018-12-08T00:25:03.610Z,8.90
2018-12-08T00:26:11.112Z,8.90
2018-12-08T00:27:18.305Z,8.90
2018-12-08T00:28:23.189Z,9.00
2018-12-08T00:29:29.110Z,9.00
2018-12-08T00:30:44.959Z,9.00
2018-12-08T00:31:50.478Z,9.00
2018-12-08T00:32:56.758Z,9.00
2018-12-08T00:34:01.518Z,9.00
2018-12-08T00:35:07.634Z,9.00
2018-12-08T00:36:12.815Z,9.00
2018-12-08T00:37:17.866Z,9.00
2018-12-08T00:38:22.692Z,9.00
2018-12-08T00:39:28.551Z,9.10
2018-12-08T00:40:35.283Z,9.00
2018-12-08T00:41:40.038Z,9.00
2018-12-08T00:42:49.803Z,9.00
2018-12-08T00:43:55.538Z,9.00
2018-12-08T00:45:03.495Z,9.00
2018-12-08T00:46:08.325Z,9.00
2018-12-08T00:47:13.609Z,9.00
2018-12-08T00:48:19.366Z,9.00
2018-12-08T00:49:25.348Z,9.00
2018-12-08T00:50:30.389Z,9.00
2018-12-08T00:51:36.820Z,9.00
2018-12-08T00:52:41.900Z,9.00
2018-12-08T00:53:47.638Z,9.00
2018-12-08T00:54:52.615Z,9.00
2018-12-08T00:55:58.470Z,8.90
2018-12-08T00:57:03.284Z,9.00
2018-12-08T00:58:08.685Z,9.00
2018-12-08T00:59:14.366Z,9.00
2018-12-08T01:00:19.183Z,9.00
2018-12-08T01:01:24.177Z,9.00
2018-12-08T01:02:29.271Z,8.90
2018-12-08T01:03:35.049Z,9.00
2018-12-08T01:04:45.511Z,9.00
2018-12-08T01:05:53.100Z,8.90
2018-12-08T01:06:58.718Z,8.80
2018-12-08T01:08:03.614Z,8.90
2018-12-08T01:09:10.918Z,8.80
2018-12-08T01:10:16.931Z,8.80
2018-12-08T01:11:21.689Z,8.80
2018-12-08T01:12:26.541Z,8.80
2018-12-08T01:13:31.404Z,8.80
2018-12-08T01:14:36.201Z,8.70
2018-12-08T01:15:42.064Z,8.70
2018-12-08T01:16:47.356Z,8.60
2018-12-08T01:17:52.338Z,8.60
2018-12-08T01:18:57.192Z,8.60
2018-12-08T01:20:04.326Z,8.60
2018-12-08T01:21:09.066Z,8.60
2018-12-08T01:22:14.209Z,8.60
2018-12-08T01:23:20.327Z,8.60
2018-12-08T01:24:25.266Z,8.60
2018-12-08T01:25:29.947Z,8.50
2018-12-08T01:26:35.580Z,8.60
2018-12-08T01:27:41.061Z,8.60
2018-12-08T01:28:47.222Z,8.60
2018-12-08T01:29:51.948Z,8.60
2018-12-08T01:30:56.648Z,8.60
2018-12-08T01:32:01.362Z,8.70
2018-12-08T01:33:06.136Z,8.70
2018-12-08T01:34:11.877Z,8.70
2018-12-08T01:35:17.272Z,8.70
2018-12-08T01:36:22.814Z,8.70
2018-12-08T01:37:27.560Z,8.70
2018-12-08T01:38:32.860Z,8.70
2018-12-08T01:39:37.562Z,8.70
2018-12-08T01:40:42.308Z,8.70
2018-12-08T01:41:47.051Z,8.70
2018-12-08T01:42:57.876Z,8.70
2018-12-08T01:44:02.659Z,8.70
2018-12-08T01:45:08.432Z,8.60
2018-12-08T01:46:13.163Z,8.60
2018-12-08T01:47:18.706Z,8.60
2018-12-08T01:48:23.469Z,8.60
2018-12-08T01:49:28.188Z,8.60
2018-12-08T01:50:33.333Z,8.50
2018-12-08T01:51:38.125Z,8.60
2018-12-08T01:52:44.513Z,8.60
2018-12-08T01:53:49.421Z,8.60
2018-12-08T01:54:54.541Z,8.60
2018-12-08T01:55:59.376Z,8.60
2018-12-08T01:57:05.693Z,8.60
2018-12-08T01:58:10.443Z,8.60
2018-12-08T01:59:16.495Z,8.60
2018-12-08T02:00:21.378Z,8.60
2018-12-08T02:01:26.396Z,8.50
2018-12-08T02:02:31.523Z,8.60
2018-12-08T02:03:36.624Z,8.60
2018-12-08T02:04:41.361Z,8.60
2018-12-08T02:05:46.860Z,8.60
2018-12-08T02:06:51.610Z,8.60
2018-12-08T02:07:56.561Z,8.60
2018-12-08T02:09:01.616Z,8.60
2018-12-08T02:10:06.862Z,8.60
2018-12-08T02:11:11.570Z,8.60
2018-12-08T02:12:17.198Z,8.60
2018-12-08T02:13:22.833Z,8.60
2018-12-08T02:14:27.546Z,8.60
2018-12-08T02:15:32.393Z,8.60
2018-12-08T02:16:38.003Z,8.60
2018-12-08T02:17:42.762Z,8.60
2018-12-08T02:18:47.661Z,8.70
2018-12-08T02:19:52.405Z,8.70
2018-12-08T02:20:57.341Z,8.70
2018-12-08T02:22:02.036Z,8.70
2018-12-08T02:23:06.805Z,8.60
2018-12-08T02:24:11.567Z,8.60
2018-12-08T02:25:16.285Z,8.60
2018-12-08T02:26:21.437Z,8.60
2018-12-08T02:27:26.211Z,8.60
2018-12-08T02:28:30.917Z,8.60
2018-12-08T02:29:35.635Z,8.70
2018-12-08T02:30:40.499Z,8.60
2018-12-08T02:31:45.238Z,8.60
2018-12-08T02:32:50.031Z,8.60
2018-12-08T02:33:55.021Z,8.60
2018-12-08T02:35:00.718Z,8.60
2018-12-08T02:36:05.587Z,8.60
2018-12-08T02:37:11.021Z,8.60
2018-12-08T02:38:15.961Z,8.70
2018-12-08T02:39:21.061Z,8.70
2018-12-08T02:40:28.336Z,8.70
2018-12-08T02:41:34.097Z,8.70
2018-12-08T02:42:38.790Z,8.70
2018-12-08T02:43:43.674Z,8.70
2018-12-08T02:44:48.762Z,8.70
2018-12-08T02:45:54.588Z,8.70
2018-12-08T02:47:00.285Z,8.70
2018-12-08T02:48:05.093Z,8.70
2018-12-08T02:49:09.761Z,8.70
2018-12-08T02:50:16.713Z,8.70
2018-12-08T02:51:21.818Z,8.70
2018-12-08T02:52:28.089Z,8.70
2018-12-08T02:53:32.868Z,8.70
2018-12-08T02:54:38.957Z,8.70
2018-12-08T02:55:43.887Z,8.70
2018-12-08T02:56:48.917Z,8.70
2018-12-08T02:57:53.822Z,8.70
2018-12-08T02:58:58.867Z,8.70
2018-12-08T03:00:04.021Z,8.70
2018-12-08T03:01:08.737Z,8.70
2018-12-08T03:02:13.850Z,8.70
2018-12-08T03:03:18.588Z,8.60
2018-12-08T03:04:24.186Z,8.60
2018-12-08T03:05:29.042Z,8.60
2018-12-08T03:06:33.758Z,8.50
2018-12-08T03:07:39.413Z,8.60
2018-12-08T03:08:44.124Z,8.60
2018-12-08T03:09:48.885Z,8.60
2018-12-08T03:10:53.650Z,8.50
2018-12-08T03:11:58.409Z,8.50
2018-12-08T03:13:03.724Z,8.50
2018-12-08T03:14:08.466Z,8.50
2018-12-08T03:15:13.729Z,8.60
2018-12-08T03:16:18.424Z,8.50
2018-12-08T03:17:23.585Z,8.50
2018-12-08T03:18:28.576Z,8.60
2018-12-08T03:19:34.236Z,8.60
2018-12-08T03:20:40.864Z,8.60
2018-12-08T03:21:47.805Z,8.60
2018-12-08T03:22:52.757Z,8.60
2018-12-08T03:23:57.740Z,8.70
2018-12-08T03:25:02.817Z,8.70
2018-12-08T03:26:08.283Z,8.70
2018-12-08T03:27:13.274Z,8.70
2018-12-08T03:28:18.295Z,8.60
2018-12-08T03:29:23.005Z,8.60
2018-12-08T03:30:29.202Z,8.70
2018-12-08T03:31:34.066Z,8.70
2018-12-08T03:32:39.318Z,8.60
2018-12-08T03:33:45.745Z,8.70
2018-12-08T03:34:52.169Z,8.60
2018-12-08T03:35:57.859Z,8.60
2018-12-08T03:37:02.940Z,8.60
2018-12-08T03:38:07.913Z,8.60
2018-12-08T03:39:12.737Z,8.60
2018-12-08T03:40:17.687Z,8.60
2018-12-08T03:41:23.142Z,8.70
2018-12-08T03:42:28.418Z,8.60
2018-12-08T03:43:33.408Z,8.30
2018-12-08T03:44:38.921Z,8.70
2018-12-08T03:45:43.719Z,8.70
2018-12-08T03:46:48.458Z,8.70
2018-12-08T03:47:53.349Z,8.60
2018-12-08T03:48:58.139Z,8.70
2018-12-08T03:50:09.865Z,8.70
2018-12-08T03:53:16.054Z,8.70
2018-12-08T03:54:43.542Z,8.80
2018-12-08T03:55:52.354Z,8.80
2018-12-08T03:56:59.348Z,8.80
2018-12-08T03:58:09.861Z,8.80
2018-12-08T03:59:18.954Z,8.80
2018-12-08T04:00:28.744Z,8.90
2018-12-08T04:01:37.893Z,8.90
2018-12-08T04:02:42.623Z,8.90
2018-12-08T04:03:47.800Z,8.90
2018-12-08T04:04:52.663Z,8.90
2018-12-08T04:05:58.298Z,8.90
2018-12-08T04:07:03.468Z,9.00
2018-12-08T04:08:08.267Z,9.00
2018-12-08T04:09:14.483Z,8.90
2018-12-08T04:10:19.690Z,8.90
2018-12-08T04:11:24.640Z,9.00
2018-12-08T04:12:30.158Z,9.00
2018-12-08T04:13:35.154Z,9.10
2018-12-08T04:14:46.141Z,9.10
2018-12-08T04:15:51.298Z,9.10
2018-12-08T04:17:01.380Z,9.10
2018-12-08T04:18:12.046Z,9.10
2018-12-08T04:19:17.065Z,9.20
2018-12-08T04:20:27.370Z,9.10
2018-12-08T04:21:37.141Z,9.10
2018-12-08T04:22:42.315Z,9.10
2018-12-08T04:23:47.457Z,9.20
2018-12-08T04:24:52.973Z,9.20
2018-12-08T04:26:03.070Z,9.20
2018-12-08T04:27:21.478Z,9.20
2018-12-08T04:28:33.888Z,9.20
2018-12-08T04:29:45.294Z,9.20
2018-12-08T04:30:54.831Z,9.20
2018-12-08T04:32:01.844Z,9.20
2018-12-08T04:34:43.091Z,9.10
2018-12-08T04:35:49.387Z,9.20
2018-12-08T04:36:54.095Z,9.20
2018-12-08T04:38:02.167Z,9.20
2018-12-08T04:39:08.341Z,9.20
2018-12-08T04:40:14.620Z,9.20
2018-12-08T04:41:19.812Z,9.20
2018-12-08T04:42:24.538Z,9.20
2018-12-08T04:43:35.931Z,9.20
2018-12-08T04:44:43.207Z,9.20
2018-12-08T04:45:51.388Z,9.20
2018-12-08T04:46:56.999Z,9.20
2018-12-08T04:48:03.274Z,9.20
2018-12-08T04:49:08.218Z,9.20
2018-12-08T04:52:09.968Z,9.30
2018-12-08T04:53:15.971Z,9.30
2018-12-08T04:54:21.021Z,9.20
2018-12-08T04:55:25.850Z,9.20
2018-12-08T04:56:30.677Z,9.10
2018-12-08T04:57:35.476Z,9.10
2018-12-08T04:58:40.609Z,9.10
2018-12-08T04:59:53.084Z,9.10
2018-12-08T05:01:05.165Z,9.20
2018-12-08T05:02:16.772Z,9.10
2018-12-08T05:03:23.333Z,9.20
2018-12-08T05:04:29.135Z,9.10
2018-12-08T05:05:34.121Z,9.10
2018-12-08T05:06:39.218Z,9.20
2018-12-08T05:07:43.960Z,9.20
2018-12-08T05:08:48.739Z,9.20
2018-12-08T05:09:54.036Z,9.20
2018-12-08T05:10:59.001Z,9.20
2018-12-08T05:12:04.275Z,9.20
2018-12-08T05:13:09.057Z,9.20
2018-12-08T05:14:14.293Z,9.20
2018-12-08T05:15:19.413Z,9.20
2018-12-08T05:16:24.649Z,9.20
2018-12-08T05:17:29.962Z,9.20
2018-12-08T05:18:36.463Z,9.20
2018-12-08T05:19:41.522Z,9.20
2018-12-08T05:20:46.711Z,9.20
2018-12-08T05:21:52.282Z,9.20
2018-12-08T05:22:57.179Z,9.20
2018-12-08T05:24:02.813Z,10.30
2018-12-08T05:25:09.466Z,9.20
2018-12-08T05:26:16.360Z,9.20
2018-12-08T05:27:21.691Z,9.20
2018-12-08T05:28:26.751Z,9.20
2018-12-08T05:29:32.376Z,9.20
2018-12-08T05:30:37.761Z,8.00
2018-12-08T05:31:45.127Z,9.20
2018-12-08T05:32:49.953Z,9.20
2018-12-08T05:33:55.929Z,9.20
2018-12-08T05:35:02.876Z,9.10
2018-12-08T05:36:07.984Z,9.20
2018-12-08T05:37:14.293Z,9.20
2018-12-08T05:38:23.163Z,9.20
2018-12-08T05:39:28.404Z,9.20
2018-12-08T05:40:34.993Z,9.10
2018-12-08T05:41:41.406Z,9.20
2018-12-08T05:42:47.720Z,9.20
2018-12-08T05:43:55.486Z,9.20
2018-12-08T05:45:00.980Z,9.20
2018-12-08T05:46:10.757Z,9.20
2018-12-08T05:47:17.590Z,9.20
2018-12-08T05:48:23.994Z,9.10
2018-12-08T05:49:29.329Z,9.10
2018-12-08T05:50:38.154Z,9.10
2018-12-08T05:51:46.795Z,9.20
2018-12-08T05:52:57.548Z,9.20
2018-12-08T05:54:03.182Z,9.10
2018-12-08T05:55:08.429Z,9.20
2018-12-08T05:56:15.219Z,9.10
2018-12-08T05:57:21.341Z,9.20
2018-12-08T05:58:26.604Z,9.10
2018-12-08T05:59:33.123Z,9.10
2018-12-08T06:00:38.410Z,9.10
2018-12-08T06:01:43.361Z,9.10
2018-12-08T06:02:49.942Z,9.10
2018-12-08T06:03:55.058Z,9.10
2018-12-08T06:05:00.623Z,9.10
2018-12-08T06:06:06.401Z,9.10
2018-12-08T06:07:12.858Z,9.10
2018-12-08T06:08:19.581Z,10.30
2018-12-08T06:09:27.340Z,9.10
2018-12-08T06:10:37.517Z,9.10
2018-12-08T06:11:44.053Z,9.10
2018-12-08T06:13:08.211Z,9.10
2018-12-08T06:14:44.596Z,9.20
2018-12-08T06:15:50.016Z,9.10
2018-12-08T06:16:58.206Z,9.10
2018-12-08T06:18:04.370Z,9.20
2018-12-08T06:19:10.131Z,9.20
2018-12-08T06:20:15.605Z,9.20
2018-12-08T06:21:47.744Z,9.20
2018-12-08T06:22:58.992Z,9.20
2018-12-08T06:24:05.260Z,9.20
2018-12-08T06:25:17.271Z,9.20
2018-12-08T06:26:23.359Z,9.20
2018-12-08T06:27:40.602Z,9.20
2018-12-08T06:28:49.761Z,9.20
2018-12-08T06:29:55.397Z,9.20
2018-12-08T06:31:04.092Z,9.20
2018-12-08T06:32:12.757Z,9.20
2018-12-08T06:33:19.057Z,9.20
2018-12-08T06:34:24.663Z,9.20
2018-12-08T06:35:38.463Z,9.20
2018-12-08T06:36:48.721Z,9.30
2018-12-08T06:37:54.283Z,9.20
2018-12-08T06:39:01.463Z,9.30
2018-12-08T06:40:07.246Z,9.30
2018-12-08T06:41:13.361Z,9.30
2018-12-08T06:42:18.077Z,9.30
2018-12-08T06:43:25.431Z,9.20
2018-12-08T06:44:30.819Z,9.10
2018-12-08T06:45:35.973Z,9.20
2018-12-08T06:46:40.729Z,9.20
2018-12-08T06:47:48.127Z,9.20
2018-12-08T06:48:53.281Z,9.10
2018-12-08T06:50:00.219Z,9.10
2018-12-08T06:51:06.499Z,9.10
2018-12-08T06:52:12.579Z,9.10
2018-12-08T06:53:20.306Z,9.10
2018-12-08T06:54:25.927Z,9.00
2018-12-08T06:55:32.782Z,9.10
2018-12-08T06:56:40.280Z,9.10
2018-12-08T06:57:45.849Z,9.10
2018-12-08T06:58:50.585Z,9.10
2018-12-08T06:59:58.589Z,9.10
2018-12-08T07:01:03.391Z,9.10
2018-12-08T07:02:14.651Z,9.10
2018-12-08T07:03:21.245Z,9.10
2018-12-08T07:04:29.682Z,9.10
2018-12-08T07:05:47.083Z,9.10
2018-12-08T07:07:01.941Z,9.00
2018-12-08T07:08:08.536Z,8.80
2018-12-08T07:09:26.759Z,9.10
2018-12-08T07:13:10.012Z,9.10
2018-12-08T07:14:31.304Z,9.00
2018-12-08T07:15:36.981Z,9.00
2018-12-08T07:16:43.145Z,9.10
2018-12-08T07:17:50.106Z,9.00
2018-12-08T07:18:55.327Z,9.00
2018-12-08T07:20:01.357Z,9.00
2018-12-08T07:21:07.387Z,9.00
2018-12-08T07:22:12.735Z,9.00
2018-12-08T07:23:17.818Z,9.00
2018-12-08T07:24:22.603Z,9.00
2018-12-08T07:25:28.205Z,8.90
2018-12-08T07:26:32.969Z,8.90
2018-12-08T07:27:37.887Z,9.00
2018-12-08T07:28:42.994Z,8.90
2018-12-08T07:29:47.823Z,8.90
2018-12-08T07:30:52.679Z,8.90
2018-12-08T07:31:58.322Z,8.90
2018-12-08T07:33:08.269Z,8.90
2018-12-08T07:34:13.081Z,8.90
2018-12-08T07:35:18.031Z,8.90
2018-12-08T07:36:23.439Z,8.90
2018-12-08T07:37:28.570Z,8.90
2018-12-08T07:38:33.365Z,8.90
2018-12-08T07:39:38.348Z,8.90
2018-12-08T07:40:44.101Z,8.90
2018-12-08T07:41:58.547Z,8.90
2018-12-08T07:43:09.401Z,8.90
2018-12-08T07:44:23.731Z,9.30
2018-12-08T07:45:31.585Z,8.80
2018-12-08T07:46:50.099Z,8.80
2018-12-08T07:47:57.554Z,8.70
2018-12-08T07:49:03.460Z,8.60
2018-12-08T07:50:09.857Z,8.50
2018-12-08T07:51:14.667Z,8.50
2018-12-08T07:52:19.450Z,8.50
2018-12-08T07:53:26.765Z,8.50
2018-12-08T07:54:32.565Z,8.50
2018-12-08T07:55:37.294Z,8.50
2018-12-08T07:56:42.065Z,8.50
2018-12-08T07:57:48.283Z,8.50
2018-12-08T07:58:53.289Z,8.50
2018-12-08T07:59:58.528Z,8.50
2018-12-08T08:01:04.518Z,9.60
2018-12-08T08:02:09.301Z,8.50
2018-12-08T08:03:28.293Z,8.50
2018-12-08T08:04:34.312Z,8.50
2018-12-08T08:05:39.856Z,8.60
2018-12-08T08:06:45.995Z,8.50
2018-12-08T08:07:53.293Z,8.60
2018-12-08T08:08:59.614Z,8.60
2018-12-08T08:10:04.705Z,8.60
2018-12-08T08:11:09.756Z,8.70
2018-12-08T08:12:15.637Z,8.70
2018-12-08T08:13:20.758Z,8.70
2018-12-08T08:14:25.779Z,8.80
2018-12-08T08:15:30.660Z,8.80
2018-12-08T08:16:36.932Z,8.70
2018-12-08T08:17:42.699Z,8.80
2018-12-08T08:18:48.116Z,8.80
2018-12-08T08:19:53.523Z,8.70
2018-12-08T08:20:58.396Z,8.80
2018-12-08T08:22:03.419Z,8.80
2018-12-08T08:23:10.375Z,8.80
2018-12-08T08:24:16.653Z,8.80
2018-12-08T08:25:23.880Z,8.90
2018-12-08T08:26:29.432Z,8.80
2018-12-08T08:27:34.394Z,8.80
2018-12-08T08:28:39.381Z,9.40
2018-12-08T08:29:44.329Z,8.80
2018-12-08T08:30:49.353Z,8.90
2018-12-08T08:31:55.698Z,8.90
2018-12-08T08:33:01.425Z,8.90
2018-12-08T08:34:07.095Z,8.80
2018-12-08T08:35:12.113Z,8.90
2018-12-08T08:36:17.093Z,8.90
2018-12-08T08:37:22.405Z,8.90
2018-12-08T08:38:27.363Z,8.90
2018-12-08T08:39:32.493Z,9.00
2018-12-08T08:40:38.284Z,9.00
2018-12-08T08:41:43.252Z,9.00
2018-12-08T08:42:48.584Z,9.00
2018-12-08T08:43:53.612Z,9.00
2018-12-08T08:44:58.988Z,9.00
2018-12-08T08:46:04.285Z,9.00
2018-12-08T08:47:10.063Z,9.10
2018-12-08T08:48:15.364Z,9.30
2018-12-08T08:49:22.273Z,8.40
2018-12-08T08:50:27.821Z,9.10
2018-12-08T08:51:32.700Z,9.10
2018-12-08T08:52:37.607Z,9.10
2018-12-08T08:53:42.497Z,9.10
2018-12-08T08:54:47.503Z,9.10
2018-12-08T08:55:52.486Z,9.10
2018-12-08T08:56:57.327Z,9.10
2018-12-08T08:58:02.497Z,9.10
2018-12-08T08:59:07.494Z,9.10
2018-12-08T09:00:12.491Z,9.10
2018-12-08T09:01:18.705Z,9.10
2018-12-08T09:02:24.135Z,9.10
2018-12-08T09:03:30.214Z,9.10
2018-12-08T09:04:36.199Z,9.20
2018-12-08T09:05:41.855Z,9.20
2018-12-08T09:06:48.875Z,9.20
2018-12-08T09:07:54.736Z,9.20
2018-12-08T09:09:05.081Z,9.20
2018-12-08T09:10:12.561Z,9.20
2018-12-08T09:11:18.267Z,9.20
2018-12-08T09:12:23.292Z,8.90
2018-12-08T09:13:29.458Z,9.20
2018-12-08T09:14:35.469Z,9.20
2018-12-08T09:15:40.290Z,9.30
2018-12-08T09:16:46.168Z,9.30
2018-12-08T09:17:53.547Z,9.40
2018-12-08T09:18:59.326Z,9.30
2018-12-08T09:20:05.162Z,9.30
2018-12-08T09:21:10.466Z,9.40
2018-12-08T09:22:16.946Z,9.40
2018-12-08T09:23:21.833Z,9.40
2018-12-08T09:24:27.269Z,9.40
2018-12-08T09:25:37.623Z,9.50
2018-12-08T09:27:28.115Z,9.40
2018-12-08T09:28:34.737Z,9.40
2018-12-08T09:29:42.513Z,9.50
2018-12-08T09:30:50.884Z,9.50
2018-12-08T09:31:57.757Z,9.50
2018-12-08T09:33:02.648Z,9.50
2018-12-08T09:34:07.400Z,9.50
2018-12-08T09:35:12.607Z,9.50
2018-12-08T09:36:17.469Z,9.60
2018-12-08T09:37:22.400Z,9.50
2018-12-08T09:38:27.461Z,9.50
2018-12-08T09:39:33.106Z,9.50
2018-12-08T09:40:38.068Z,9.60
2018-12-08T09:41:43.783Z,9.60
2018-12-08T09:42:49.330Z,9.60
2018-12-08T09:43:54.349Z,9.60
2018-12-08T09:45:00.089Z,9.60
2018-12-08T09:46:04.903Z,9.60
2018-12-08T09:47:14.959Z,9.60
2018-12-08T09:48:23.288Z,9.70
2018-12-08T09:49:28.535Z,9.70
2018-12-08T09:50:34.578Z,9.70
2018-12-08T09:51:39.650Z,9.70
2018-12-08T09:52:44.478Z,9.70
2018-12-08T09:53:49.471Z,9.70
2018-12-08T09:54:57.947Z,9.70
2018-12-08T09:56:02.875Z,9.70
2018-12-08T09:57:08.345Z,9.70
2018-12-08T09:58:13.570Z,9.70
2018-12-08T09:59:18.483Z,9.70
2018-12-08T10:00:23.991Z,9.60
2018-12-08T10:01:30.186Z,9.60
2018-12-08T10:02:34.946Z,9.60
2018-12-08T10:03:39.829Z,9.70
2018-12-08T10:04:45.328Z,9.60
2018-12-08T10:05:50.334Z,9.70
2018-12-08T10:06:55.252Z,9.60
2018-12-08T10:08:03.211Z,9.60
2018-12-08T10:09:09.061Z,9.60
2018-12-08T10:10:14.159Z,10.30
2018-12-08T10:11:20.880Z,9.60
2018-12-08T10:12:28.212Z,9.60
2018-12-08T10:13:36.864Z,9.60
2018-12-08T10:14:42.543Z,9.50
2018-12-08T10:15:49.003Z,9.60
2018-12-08T10:16:54.404Z,9.60
2018-12-08T10:17:59.511Z,9.60
2018-12-08T10:19:05.906Z,9.60
2018-12-08T10:20:11.422Z,9.60
2018-12-08T10:21:16.832Z,9.60
2018-12-08T10:22:21.658Z,9.70
2018-12-08T10:23:27.238Z,9.70
2018-12-08T10:24:33.287Z,9.70
2018-12-08T10:25:38.381Z,9.70
2018-12-08T10:26:43.769Z,9.70
2018-12-08T10:27:51.465Z,9.70
2018-12-08T10:28:56.281Z,9.70
2018-12-08T10:30:03.320Z,9.60
2018-12-08T10:31:10.179Z,9.60
2018-12-08T10:32:15.261Z,9.60
2018-12-08T10:33:21.381Z,9.60
2018-12-08T10:34:27.650Z,9.60
2018-12-08T10:35:32.466Z,9.60
2018-12-08T10:36:38.787Z,9.60
2018-12-08T10:37:44.189Z,8.50
2018-12-08T10:38:53.204Z,9.60
2018-12-08T10:39:59.818Z,9.60
2018-12-08T10:41:07.332Z,9.60
2018-12-08T10:42:14.000Z,9.60
2018-12-08T10:43:25.930Z,9.70
2018-12-08T10:44:41.529Z,9.60
2018-12-08T10:45:49.538Z,9.70
2018-12-08T10:46:54.964Z,9.70
2018-12-08T10:48:01.688Z,9.70
2018-12-08T10:49:06.542Z,9.70
2018-12-08T10:50:13.499Z,9.70
2018-12-08T10:51:22.788Z,9.70
2018-12-08T10:52:28.540Z,9.70
2018-12-08T10:53:35.223Z,9.70
2018-12-08T10:57:07.299Z,9.70
2018-12-08T10:58:13.788Z,9.80
2018-12-08T10:59:24.805Z,9.80
2018-12-08T11:00:35.295Z,9.90
2018-12-08T11:01:46.077Z,9.90
2018-12-08T11:02:54.546Z,9.90
2018-12-08T11:04:00.346Z,9.90
2018-12-08T11:05:05.789Z,9.90
2018-12-08T11:06:10.907Z,8.90
2018-12-08T11:07:21.804Z,10.00
2018-12-08T11:08:27.106Z,10.00
2018-12-08T11:09:35.673Z,10.00
2018-12-08T11:10:42.764Z,10.00
2018-12-08T11:11:52.648Z,9.30
2018-12-08T11:13:38.870Z,10.10
2018-12-08T11:14:44.490Z,10.10
2018-12-08T11:15:50.878Z,10.10
2018-12-08T11:18:23.016Z,10.10
2018-12-08T11:19:45.621Z,10.10
2018-12-08T11:20:55.629Z,10.10
2018-12-08T11:22:02.618Z,10.10
2018-12-08T11:23:38.866Z,10.20
2018-12-08T11:24:50.549Z,10.00
2018-12-08T11:25:55.590Z,10.30
2018-12-08T11:27:01.241Z,9.10
2018-12-08T11:28:07.425Z,10.40
2018-12-08T11:29:12.863Z,10.40
2018-12-08T11:30:18.807Z,10.40
2018-12-08T11:31:24.072Z,10.40
2018-12-08T11:32:29.809Z,10.40
2018-12-08T11:33:35.694Z,10.40
2018-12-08T11:34:49.318Z,10.40
2018-12-08T11:35:55.774Z,10.40
2018-12-08T11:37:01.675Z,10.40
2018-12-08T11:38:06.710Z,10.40
2018-12-08T11:39:11.704Z,10.50
2018-12-08T11:40:18.473Z,10.50
2018-12-08T11:41:23.822Z,10.50
2018-12-08T11:42:29.750Z,10.50
2018-12-08T11:43:35.777Z,10.50
2018-12-08T11:44:43.183Z,10.50
2018-12-08T11:45:53.838Z,10.50
2018-12-08T11:47:03.595Z,10.50
2018-12-08T11:48:10.491Z,10.50
2018-12-08T11:49:15.914Z,10.60
2018-12-08T11:50:20.993Z,10.50
2018-12-08T11:51:25.953Z,10.50
2018-12-08T11:52:40.054Z,10.50
2018-12-08T11:53:46.451Z,10.50
2018-12-08T11:54:52.320Z,10.50
2018-12-08T11:55:58.195Z,10.50
2018-12-08T11:57:04.277Z,10.50
2018-12-08T11:58:09.855Z,10.40
2018-12-08T11:59:15.555Z,10.50
2018-12-08T12:00:21.371Z,10.50
2018-12-08T12:01:26.754Z,10.50
2018-12-08T12:02:32.730Z,10.50
2018-12-08T12:03:39.052Z,10.50
2018-12-08T12:04:44.068Z,10.50
2018-12-08T12:05:55.087Z,10.50
2018-12-08T12:07:01.229Z,10.50
2018-12-08T12:08:09.378Z,10.40
2018-12-08T12:09:14.355Z,10.40
2018-12-08T12:10:19.435Z,10.40
2018-12-08T12:11:26.618Z,10.40
2018-12-08T12:12:31.447Z,10.30
2018-12-08T12:13:38.104Z,10.30
2018-12-08T12:14:46.732Z,10.40
2018-12-08T12:15:51.548Z,10.30
2018-12-08T12:16:56.441Z,10.30
2018-12-08T12:18:04.267Z,10.40
2018-12-08T12:19:11.788Z,10.40
2018-12-08T12:20:16.684Z,10.40
2018-12-08T12:21:30.302Z,10.40
2018-12-08T12:22:36.834Z,10.40
2018-12-08T12:23:41.996Z,10.40
2018-12-08T12:24:47.221Z,10.40
2018-12-08T12:25:55.389Z,10.40
2018-12-08T12:27:01.924Z,10.40
2018-12-08T12:28:35.106Z,10.40
2018-12-08T12:29:42.453Z,10.40
2018-12-08T12:31:25.878Z,10.40
2018-12-08T12:32:31.445Z,10.40
2018-12-08T12:33:36.844Z,10.40
2018-12-08T12:34:42.342Z,10.40
2018-12-08T12:35:48.267Z,10.40
2018-12-08T12:36:55.657Z,10.40
2018-12-08T12:38:01.451Z,10.40
2018-12-08T12:39:09.947Z,10.50
2018-12-08T12:40:17.380Z,10.50
2018-12-08T12:42:00.280Z,10.50
2018-12-08T12:43:09.180Z,10.50
2018-12-08T12:44:18.335Z,10.40
2018-12-08T12:45:32.715Z,10.40
2018-12-08T12:46:38.889Z,10.40
2018-12-08T12:47:44.317Z,10.40
2018-12-08T12:48:49.111Z,10.40
2018-12-08T12:49:54.718Z,10.40
2018-12-08T12:51:02.060Z,10.40
2018-12-08T12:52:08.404Z,10.40
2018-12-08T12:53:14.119Z,10.40
2018-12-08T12:54:19.433Z,10.30
2018-12-08T12:55:25.472Z,10.30
2018-12-08T12:56:30.310Z,10.40
2018-12-08T12:57:39.242Z,10.30
2018-12-08T12:58:50.450Z,10.30
2018-12-08T12:59:56.660Z,10.40
2018-12-08T13:01:05.315Z,10.40
2018-12-08T13:02:10.728Z,10.40
2018-12-08T13:03:16.451Z,10.40
2018-12-08T13:04:22.385Z,10.40
2018-12-08T13:05:28.263Z,10.30
2018-12-08T13:06:35.551Z,10.30
2018-12-08T13:07:41.896Z,10.40
2018-12-08T13:08:46.831Z,10.40
2018-12-08T13:09:51.778Z,10.40
2018-12-08T13:10:57.530Z,10.40
2018-12-08T13:12:03.359Z,10.40
2018-12-08T13:13:09.404Z,10.50
2018-12-08T13:14:14.199Z,10.50
2018-12-08T13:15:23.414Z,10.40
2018-12-08T13:16:29.241Z,10.40
2018-12-08T13:17:35.197Z,10.50
2018-12-08T13:18:42.987Z,10.50
2018-12-08T13:19:49.618Z,10.50
2018-12-08T13:20:55.447Z,10.50
2018-12-08T13:22:02.855Z,10.00
2018-12-08T13:23:09.274Z,10.50
2018-12-08T13:24:18.844Z,10.60
2018-12-08T13:25:26.990Z,10.60
2018-12-08T13:26:32.883Z,10.60
2018-12-08T13:27:38.116Z,10.60
2018-12-08T13:28:44.085Z,10.60
2018-12-08T13:29:49.235Z,10.60
2018-12-08T13:33:53.649Z,10.60
2018-12-08T13:34:59.371Z,10.60
2018-12-08T13:36:05.607Z,10.70
2018-12-08T13:37:10.487Z,10.70
2018-12-08T13:38:16.650Z,10.70
2018-12-08T13:39:21.933Z,10.70
2018-12-08T13:40:27.391Z,10.20
2018-12-08T13:41:32.616Z,10.70
2018-12-08T13:42:37.328Z,10.70
2018-12-08T13:43:45.698Z,10.70
2018-12-08T13:45:13.921Z,10.70
2018-12-08T13:46:19.555Z,11.40
2018-12-08T13:47:24.945Z,10.70
2018-12-08T13:48:35.993Z,10.70
2018-12-08T13:49:41.298Z,10.70
2018-12-08T13:50:47.301Z,10.70
2018-12-08T13:52:01.444Z,10.70
2018-12-08T13:53:07.300Z,10.70
2018-12-08T13:54:20.773Z,10.70
2018-12-08T13:55:25.644Z,10.70
2018-12-08T13:56:30.610Z,10.80
2018-12-08T13:57:38.392Z,10.70
2018-12-08T13:58:43.513Z,10.80
2018-12-08T13:59:56.123Z,11.60
2018-12-08T14:01:00.887Z,10.70
2018-12-08T14:02:07.010Z,10.80
2018-12-08T14:03:11.788Z,10.80
2018-12-08T14:04:17.362Z,10.80
2018-12-08T14:05:40.767Z,10.80
2018-12-08T14:06:55.797Z,10.80
2018-12-08T14:08:02.473Z,11.60
2018-12-08T14:09:09.897Z,10.80
2018-12-08T14:10:18.392Z,10.90
2018-12-08T14:11:33.472Z,10.90
2018-12-08T14:12:54.894Z,10.90
2018-12-08T14:14:19.854Z,10.80
2018-12-08T14:15:37.560Z,10.90
2018-12-08T14:16:45.928Z,10.90
2018-12-08T14:17:52.579Z,10.90
2018-12-08T14:19:00.162Z,10.90
2018-12-08T14:20:16.347Z,10.90
2018-12-08T14:21:21.243Z,10.90
2018-12-08T14:22:26.834Z,10.90
2018-12-08T14:23:31.908Z,10.90
2018-12-08T14:25:42.187Z,10.90
2018-12-08T14:26:49.681Z,10.90
2018-12-08T14:27:55.559Z,10.90
2018-12-08T14:29:01.423Z,10.90
2018-12-08T14:30:07.462Z,10.90
2018-12-08T14:31:13.745Z,10.90
2018-12-08T14:32:22.030Z,10.90
2018-12-08T14:33:37.078Z,10.90
2018-12-08T14:34:57.326Z,10.90
2018-12-08T14:36:02.594Z,10.90
2018-12-08T14:37:08.251Z,10.90
2018-12-08T14:38:18.786Z,10.90
2018-12-08T14:39:27.302Z,10.90
2018-12-08T14:40:33.730Z,10.90
2018-12-08T14:41:41.380Z,10.90
2018-12-08T14:42:50.052Z,11.00
2018-12-08T14:43:59.019Z,11.00
2018-12-08T14:45:15.766Z,10.90
2018-12-08T14:46:26.914Z,10.90
2018-12-08T14:47:32.000Z,11.00
2018-12-08T14:48:46.241Z,11.00
2018-12-08T14:49:56.457Z,11.80
2018-12-08T14:51:01.637Z,11.00
2018-12-08T14:52:10.880Z,11.00
2018-12-08T14:53:16.404Z,11.00
2018-12-08T14:54:23.437Z,11.00
2018-12-08T14:55:29.963Z,11.00
2018-12-08T14:56:35.847Z,11.00
2018-12-08T14:57:42.640Z,11.00
2018-12-08T14:58:49.469Z,11.00
2018-12-08T14:59:56.563Z,11.00